Time;durP1;ratioP1;P1;durP2;ratioP2;P2;SDS_P1;SDS_P2;PMS_P1;PMS_P2;Temp;Humidity;BMP_temperature;BMP_pressure;BME280_temperature;BME280_humidity;BME280_pressure;Samples;Min_cycle;Max_cycle;Signal;HPM_P1;HPM_P2
2022/07/02 00:00:15;;;;;;;2.47;1.27;;;;;;;15.08;100.00;100695.56;5032575;28;20373;-63
2022/07/02 00:02:43;;;;;;;2.47;1.70;;;;;;;15.00;100.00;100697.69;5032595;28;20036;-63
2022/07/02 00:05:12;;;;;;;2.28;1.52;;;;;;;14.94;100.00;100692.53;5032550;28;20029;-63
2022/07/02 00:07:37;;;;;;;8.18;1.60;;;;;;;14.91;100.00;100681.97;5032218;28;20033;-63
2022/07/02 00:10:03;;;;;;;3.88;1.35;;;;;;;14.90;100.00;100690.94;5032428;28;20025;-63
2022/07/02 00:12:29;;;;;;;3.60;1.42;;;;;;;14.90;100.00;100690.06;5032013;28;20036;-63
2022/07/02 00:14:57;;;;;;;1.70;1.10;;;;;;;14.87;100.00;100691.06;5032062;28;20022;-63
2022/07/02 00:17:23;;;;;;;4.70;1.40;;;;;;;14.78;100.00;100686.06;5032198;28;20025;-63
2022/07/02 00:19:50;;;;;;;2.67;1.63;;;;;;;14.68;100.00;100695.38;5032547;28;20026;-63
2022/07/02 00:22:16;;;;;;;2.22;1.75;;;;;;;14.66;100.00;100686.56;5031395;28;20041;-63
2022/07/02 00:24:42;;;;;;;6.82;2.38;;;;;;;14.77;100.00;100691.47;5031976;28;20395;-63
2022/07/02 00:27:14;;;;;;;7.50;4.45;;;;;;;14.71;100.00;100695.25;5031691;28;20482;-63
2022/07/02 00:29:59;;;;;;;5.72;3.15;;;;;;;14.69;100.00;100691.78;5029604;28;20083;-63
2022/07/02 00:32:27;;;;;;;7.78;3.28;;;;;;;14.66;100.00;100691.03;5031908;28;20395;-63
2022/07/02 00:34:55;;;;;;;3.05;1.80;;;;;;;14.64;100.00;100688.41;5031671;28;20022;-63
2022/07/02 00:37:26;;;;;;;3.08;1.67;;;;;;;14.58;100.00;100675.22;5031910;28;20084;-63
2022/07/02 00:39:51;;;;;;;3.90;1.80;;;;;;;14.59;100.00;100690.38;5031748;28;20044;-63
2022/07/02 00:42:19;;;;;;;4.90;1.95;;;;;;;14.58;100.00;100683.25;5031986;28;20033;-63
2022/07/02 00:44:45;;;;;;;2.85;1.60;;;;;;;14.55;100.00;100678.03;5015840;28;20478;-63
2022/07/02 00:47:13;;;;;;;3.65;2.08;;;;;;;14.54;100.00;100681.66;5011581;28;20025;-63
2022/07/02 00:49:38;;;;;;;3.88;1.77;;;;;;;14.50;100.00;100680.00;5010565;28;20029;-63
2022/07/02 00:52:05;;;;;;;5.50;2.13;;;;;;;14.49;100.00;100681.84;5008765;28;20026;-63
2022/07/02 00:54:30;;;;;;;4.38;2.40;;;;;;;14.46;100.00;100676.56;5008828;28;20057;-63
2022/07/02 00:56:56;;;;;;;3.72;2.10;;;;;;;14.43;100.00;100681.19;5008856;28;20033;-63
2022/07/02 00:59:23;;;;;;;2.50;1.65;;;;;;;14.39;100.00;100682.22;5011090;28;20485;-63
2022/07/02 01:01:49;;;;;;;4.22;1.80;;;;;;;14.38;100.00;100686.69;5008942;28;20018;-64
2022/07/02 01:04:16;;;;;;;3.45;1.77;;;;;;;14.36;100.00;100683.19;5008902;28;20025;-63
2022/07/02 01:06:42;;;;;;;3.05;1.75;;;;;;;14.32;100.00;100683.38;5010298;28;20025;-63
2022/07/02 01:11:57;;;;;;;3.20;1.55;;;;;;;14.35;100.00;100691.28;5009936;28;20456;-63
2022/07/02 01:14:24;;;;;;;4.22;1.73;;;;;;;14.34;100.00;100689.56;5009159;28;20029;-63
2022/07/02 01:16:49;;;;;;;3.22;1.50;;;;;;;14.33;100.00;100682.47;5028704;28;20022;-63
2022/07/02 01:19:17;;;;;;;2.38;1.50;;;;;;;14.37;100.00;100670.69;5029317;28;20661;-63
2022/07/02 01:22:17;;;;;;;2.97;1.55;;;;;;;14.34;100.00;100677.06;5030114;28;20029;-63
2022/07/02 01:24:44;;;;;;;2.30;1.67;;;;;;;14.30;100.00;100677.22;5028503;28;20109;-63
2022/07/02 01:27:10;;;;;;;2.75;1.52;;;;;;;14.30;100.00;100677.22;5028515;28;20022;-63
2022/07/02 01:29:36;;;;;;;4.10;1.60;;;;;;;14.24;100.00;100672.06;5029481;28;20033;-63
2022/07/02 01:32:02;;;;;;;2.08;1.25;;;;;;;14.21;100.00;100674.84;5029202;28;20116;-63
2022/07/02 01:34:28;;;;;;;2.17;1.10;;;;;;;14.20;100.00;100676.66;5011752;28;20053;-63
2022/07/02 01:36:54;;;;;;;2.13;1.40;;;;;;;14.24;100.00;100677.41;5029628;28;20036;-63
2022/07/02 01:39:24;;;;;;;2.67;1.33;;;;;;;14.20;100.00;100671.28;5031333;28;20100;-63
2022/07/02 01:41:49;;;;;;;1.85;1.10;;;;;;;14.27;100.00;100674.66;5031240;28;20024;-63
2022/07/02 01:44:15;;;;;;;3.28;1.95;;;;;;;14.24;100.00;100666.72;5030315;28;20029;-63
2022/07/02 01:46:40;;;;;;;2.00;1.40;;;;;;;14.26;100.00;100665.78;5030443;28;20444;-63
2022/07/02 01:49:06;;;;;;;4.72;1.80;;;;;;;14.25;100.00;100671.16;5031263;28;20041;-63
2022/07/02 01:51:32;;;;;;;2.10;1.25;;;;;;;14.21;100.00;100666.81;5030682;28;20055;-63
2022/07/02 01:53:57;;;;;;;2.10;1.48;;;;;;;14.22;100.00;100655.19;5031212;28;20156;-63
2022/07/02 01:56:22;;;;;;;1.90;1.60;;;;;;;14.21;100.00;100661.47;5030829;28;20132;-63
2022/07/02 01:58:48;;;;;;;2.90;1.58;;;;;;;14.21;100.00;100661.47;5031259;28;20029;-63
2022/07/02 02:01:13;;;;;;;2.92;1.60;;;;;;;14.18;100.00;100666.94;5030716;28;20026;-63
2022/07/02 02:03:39;;;;;;;2.17;1.52;;;;;;;14.11;100.00;100668.09;5030878;28;20396;-63
2022/07/02 02:06:04;;;;;;;1.83;1.10;;;;;;;14.05;100.00;100660.31;5030739;28;20133;-63
2022/07/02 02:08:30;;;;;;;4.75;1.30;;;;;;;13.97;100.00;100665.91;5030166;28;20357;-63
2022/07/02 02:10:56;;;;;;;2.50;1.40;;;;;;;13.98;100.00;100669.47;5030648;28;20029;-63
2022/07/02 02:13:21;;;;;;;2.53;1.50;;;;;;;13.92;100.00;100665.19;5031048;28;20511;-63
2022/07/02 02:15:46;;;;;;;2.97;1.08;;;;;;;13.91;100.00;100662.59;5031967;28;20038;-63
2022/07/02 02:18:12;;;;;;;2.28;1.45;;;;;;;13.90;100.00;100664.41;5034389;28;20088;-63
2022/07/02 02:20:38;;;;;;;2.90;1.35;;;;;;;13.88;100.00;100652.88;5031602;28;20022;-63
2022/07/02 02:23:05;;;;;;;3.17;1.13;;;;;;;13.91;100.00;100662.59;5032606;28;20028;-63
2022/07/02 02:25:31;;;;;;;2.08;1.33;;;;;;;13.86;100.00;100669.91;5032138;28;20037;-63
2022/07/02 02:27:57;;;;;;;2.85;1.58;;;;;;;13.89;100.00;100664.44;5017714;28;20092;-63
2022/07/02 02:30:23;;;;;;;2.20;1.30;;;;;;;13.91;100.00;100662.59;5032491;28;20029;-63
2022/07/02 02:32:48;;;;;;;2.78;1.35;;;;;;;13.93;100.00;100655.38;5032453;28;20033;-63
2022/07/02 02:35:14;;;;;;;3.53;1.45;;;;;;;13.93;100.00;100666.09;5032456;28;20017;-63
2022/07/02 02:37:39;;;;;;;3.75;2.20;;;;;;;13.96;100.00;100665.97;5032630;28;20021;-63
2022/07/02 02:40:05;;;;;;;3.22;1.50;;;;;;;13.90;100.00;100666.19;5034196;28;20076;-63
2022/07/02 02:42:31;;;;;;;3.45;1.90;;;;;;;13.85;100.00;100660.13;5033854;28;20108;-63
2022/07/02 02:44:56;;;;;;;2.90;1.63;;;;;;;13.76;100.00;100668.47;5034015;28;20576;-63
2022/07/02 02:47:22;;;;;;;2.55;1.50;;;;;;;13.73;100.00;100673.94;5033788;28;20075;-63
2022/07/02 02:49:48;;;;;;;2.10;1.35;;;;;;;13.68;100.00;100673.22;5029317;28;20532;-63
2022/07/02 02:52:13;;;;;;;3.28;1.77;;;;;;;13.64;100.00;100679.63;5013994;28;20030;-63
2022/07/02 02:54:39;;;;;;;2.30;1.63;;;;;;;13.65;100.00;100674.22;5013578;28;20084;-63
2022/07/02 02:57:04;;;;;;;2.47;1.80;;;;;;;13.69;100.00;100677.66;5014157;28;20549;-63
2022/07/02 02:59:30;;;;;;;3.42;1.80;;;;;;;13.68;100.00;100676.78;5026611;28;20025;-63
2022/07/02 03:01:55;;;;;;;2.60;1.90;;;;;;;13.70;100.00;100682.06;5033954;28;20523;-63
2022/07/02 03:04:20;;;;;;;6.95;2.10;;;;;;;13.70;100.00;100674.94;5033665;28;20480;-63
2022/07/02 03:06:46;;;;;;;2.88;1.90;;;;;;;13.73;100.00;100687.28;5031348;28;20022;-63
2022/07/02 03:09:11;;;;;;;4.45;1.63;;;;;;;13.66;100.00;100675.94;5014029;28;20041;-63
2022/07/02 03:11:37;;;;;;;4.05;1.92;;;;;;;13.68;100.00;100676.78;5013934;28;20382;-63
2022/07/02 03:14:02;;;;;;;4.97;1.80;;;;;;;13.62;100.00;100681.47;5012970;28;20524;-63
2022/07/02 03:16:27;;;;;;;4.72;1.50;;;;;;;13.57;100.00;100678.06;5013852;28;20108;-63
2022/07/02 03:18:53;;;;;;;2.17;1.35;;;;;;;13.52;100.00;100682.69;5013738;28;20033;-63
2022/07/02 03:21:18;;;;;;;3.05;1.80;;;;;;;13.46;100.00;100685.59;5013176;28;20022;-63
2022/07/02 03:23:44;;;;;;;2.95;1.70;;;;;;;13.41;100.00;100682.19;5013041;28;20030;-64
2022/07/02 03:26:09;;;;;;;3.30;2.22;;;;;;;13.40;100.00;100675.06;5027534;28;20029;-63
2022/07/02 03:28:35;;;;;;;4.75;1.77;;;;;;;13.38;100.00;100680.47;5033151;28;20408;-63
2022/07/02 03:31:00;;;;;;;2.97;2.00;;;;;;;13.37;100.00;100681.41;5032663;28;20535;-63
2022/07/02 03:33:25;;;;;;;5.00;3.00;;;;;;;13.38;100.00;100683.16;5033515;28;20035;-63
2022/07/02 03:35:51;;;;;;;4.55;2.40;;;;;;;13.40;100.00;100691.09;5033161;28;20030;-63
2022/07/02 03:38:16;;;;;;;2.70;1.58;;;;;;;13.41;100.00;100695.56;5033325;28;20152;-63
2022/07/02 03:40:42;;;;;;;5.75;2.22;;;;;;;13.41;100.00;100698.22;5032811;28;20041;-63
2022/07/02 03:43:08;;;;;;;2.70;2.00;;;;;;;13.42;100.00;100702.63;5032686;28;20411;-63
2022/07/02 03:45:33;;;;;;;3.85;2.10;;;;;;;13.44;100.00;100690.09;5033322;28;20475;-63
2022/07/02 03:47:59;;;;;;;4.10;2.33;;;;;;;13.54;100.00;100704.91;5032202;28;20030;-63
2022/07/02 03:50:24;;;;;;;4.57;2.00;;;;;;;13.55;100.00;100702.19;5031439;28;20042;-63
2022/07/02 03:52:50;;;;;;;3.33;1.70;;;;;;;13.56;100.00;100708.41;5031307;28;20037;-63
2022/07/02 03:55:15;;;;;;;3.70;2.10;;;;;;;13.63;100.00;100707.25;5030574;28;20042;-63
2022/07/02 03:57:40;;;;;;;2.78;1.80;;;;;;;13.68;100.00;100713.31;5031411;28;20445;-63
2022/07/02 04:00:06;;;;;;;5.22;2.10;;;;;;;13.79;100.00;100711.16;5031118;28;20021;-64
2022/07/02 04:02:32;;;;;;;3.63;2.13;;;;;;;13.85;100.00;100709.16;5030819;28;20057;-64
2022/07/02 04:04:58;;;;;;;3.85;2.30;;;;;;;13.89;100.00;100701.88;5031174;28;20056;-63
2022/07/02 04:07:23;;;;;;;7.15;2.63;;;;;;;13.88;100.00;100705.50;5029240;28;20048;-63
2022/07/02 04:09:49;;;;;;;3.97;1.98;;;;;;;13.85;100.00;100706.47;5032274;28;20029;-63
2022/07/02 04:12:14;;;;;;;6.00;2.00;;;;;;;13.70;100.00;100704.34;5032476;28;20061;-63
2022/07/02 04:14:40;;;;;;;2.40;1.70;;;;;;;13.61;100.00;100701.06;5030968;28;20468;-63
2022/07/02 04:17:05;;;;;;;5.20;1.92;;;;;;;13.54;100.00;100694.22;5030677;28;20026;-63
2022/07/02 04:19:31;;;;;;;4.00;1.85;;;;;;;13.60;100.00;100691.31;5029934;28;20017;-63
2022/07/02 04:21:58;;;;;;;4.93;2.03;;;;;;;13.66;100.00;100693.78;5030228;28;20036;-63
2022/07/02 04:24:24;;;;;;;5.10;2.22;;;;;;;13.63;100.00;100699.22;5029770;28;20108;-63
2022/07/02 04:26:49;;;;;;;5.13;2.30;;;;;;;13.60;100.00;100694.88;5027456;28;20108;-63
2022/07/02 04:29:15;;;;;;;4.43;2.15;;;;;;;13.62;100.00;100695.72;5030884;28;20476;-63
2022/07/02 04:31:40;;;;;;;2.97;2.00;;;;;;;13.70;100.00;100700.78;5032085;28;20108;-63
2022/07/02 04:34:05;;;;;;;10.85;2.35;;;;;;;13.78;100.00;100693.34;5032064;28;20036;-63
2022/07/02 04:36:31;;;;;;;5.93;1.85;;;;;;;13.82;100.00;100703.88;5032135;28;20091;-63
2022/07/02 04:38:56;;;;;;;4.40;1.92;;;;;;;13.93;100.00;100698.19;5030557;28;20034;-63
2022/07/02 04:41:22;;;;;;;4.40;2.50;;;;;;;14.01;100.00;100701.44;5029808;28;20498;-63
2022/07/02 04:43:47;;;;;;;3.67;2.47;;;;;;;14.18;100.00;100704.41;5014172;28;20029;-63
2022/07/02 04:46:13;;;;;;;4.05;2.28;;;;;;;14.42;100.00;100703.53;5010346;28;20500;-63
2022/07/02 04:48:39;;;;;;;7.88;2.80;;;;;;;14.63;100.00;100697.34;5009727;28;20496;-63
2022/07/02 04:51:04;;;;;;;5.45;2.42;;;;;;;14.77;100.00;100708.44;5010343;28;20029;-63
2022/07/02 04:53:30;;;;;;;4.10;2.15;;;;;;;14.92;100.00;100710.50;5010707;28;20096;-63
2022/07/02 04:55:55;;;;;;;3.88;2.30;;;;;;;15.01;100.00;100709.25;5011609;28;20045;-63
2022/07/02 04:58:21;;;;;;;5.07;2.00;;;;;;;15.08;100.00;100705.41;5014216;28;20075;-63
2022/07/02 05:00:46;;;;;;;3.28;1.85;;;;;;;15.15;100.00;100709.59;5031617;28;20045;-63
2022/07/02 05:03:12;;;;;;;3.97;2.30;;;;;;;15.23;100.00;100703.00;5031646;28;20037;-63
2022/07/02 05:05:37;;;;;;;4.07;2.22;;;;;;;15.25;100.00;100701.13;5031054;28;20095;-63
2022/07/02 05:08:02;;;;;;;4.13;2.58;;;;;;;15.42;100.00;100709.38;5016856;28;20033;-63
2022/07/02 05:10:28;;;;;;;4.53;2.25;;;;;;;15.49;100.00;100708.19;5011930;28;20555;-63
2022/07/02 05:12:53;;;;;;;4.82;2.58;;;;;;;15.57;100.00;100708.72;5011979;28;20398;-63
2022/07/02 05:15:19;;;;;;;7.13;2.90;;;;;;;15.41;100.00;100672.78;5011540;28;20032;-63
2022/07/02 05:17:44;;;;;;;4.57;2.80;;;;;;;15.76;100.00;100704.31;5011327;28;20029;-63
2022/07/02 05:20:10;;;;;;;5.95;2.80;;;;;;;15.86;100.00;100699.47;4994254;28;20022;-63
2022/07/02 05:22:35;;;;;;;6.25;2.58;;;;;;;16.00;100.00;100693.47;5011932;28;20076;-63
2022/07/02 05:25:00;;;;;;;6.65;2.40;;;;;;;16.14;100.00;100691.06;5011283;28;20030;-63
2022/07/02 05:27:26;;;;;;;5.88;2.33;;;;;;;16.27;100.00;100697.63;5022078;28;20052;-63
2022/07/02 05:29:51;;;;;;;7.18;2.50;;;;;;;16.34;100.00;100705.31;5031357;28;20407;-63
2022/07/02 05:32:17;;;;;;;5.15;2.55;;;;;;;16.45;100.00;100694.09;5031265;28;20078;-63
2022/07/02 05:34:42;;;;;;;3.05;1.80;;;;;;;16.54;100.00;100701.78;5030788;28;20039;-63
2022/07/02 05:37:07;;;;;;;4.75;2.17;;;;;;;16.48;100.00;100702.06;5030554;28;20028;-63
2022/07/02 05:39:33;;;;;;;2.53;1.70;;;;;;;16.56;100.00;100705.25;5031404;28;20025;-63
2022/07/02 05:41:58;;;;;;;7.45;2.17;;;;;;;16.63;100.00;100701.34;5031019;28;20029;-63
2022/07/02 05:44:23;;;;;;;4.78;2.53;;;;;;;16.80;100.00;100699.59;5030960;28;20034;-63
2022/07/02 05:46:49;;;;;;;3.55;1.88;;;;;;;16.93;100.00;100707.97;5031029;28;20017;-63
2022/07/02 05:49:14;;;;;;;2.88;1.85;;;;;;;16.79;100.00;100675.50;5031013;28;20033;-63
2022/07/02 05:51:40;;;;;;;3.65;2.25;;;;;;;17.12;100.00;100703.47;5035220;28;20383;-63
2022/07/02 05:54:05;;;;;;;4.00;1.88;;;;;;;17.22;100.00;100702.06;5033765;28;20134;-63
2022/07/02 05:56:31;;;;;;;4.18;1.90;;;;;;;17.21;100.00;100703.03;5035097;28;20090;-63
2022/07/02 05:58:56;;;;;;;2.72;1.83;;;;;;;17.30;100.00;100697.19;5034230;28;20208;-63
2022/07/02 06:01:22;;;;;;;5.50;1.95;;;;;;;17.38;100.00;100700.34;5034896;28;20025;-63
2022/07/02 06:03:47;;;;;;;5.65;2.03;;;;;;;17.48;100.00;100698.13;5034457;28;20060;-63
2022/07/02 06:08:57;;;;;;;4.50;2.17;;;;;;;17.79;100.00;100699.19;5035000;28;20040;-63
2022/07/02 06:11:22;;;;;;;3.10;2.15;;;;;;;17.94;100.00;100703.78;5034166;28;20025;-63
2022/07/02 06:13:47;;;;;;;3.28;1.95;;;;;;;18.02;100.00;100693.47;5017177;28;20032;-63
2022/07/02 06:16:13;;;;;;;3.97;2.00;;;;;;;18.17;99.94;100698.06;5034400;28;20021;-63
2022/07/02 06:18:38;;;;;;;3.83;2.03;;;;;;;18.29;100.00;100694.72;5031252;28;20381;-63
2022/07/02 06:21:04;;;;;;;4.15;2.10;;;;;;;18.38;99.34;100686.13;5035060;28;20091;-63
2022/07/02 06:23:29;;;;;;;2.53;1.60;;;;;;;18.44;99.33;100695.75;5034771;28;20131;-63
2022/07/02 06:25:55;;;;;;;2.95;1.67;;;;;;;18.57;99.28;100694.13;5034163;28;20100;-63
2022/07/02 06:28:20;;;;;;;4.03;1.70;;;;;;;18.73;98.69;100694.19;5019152;28;20059;-63
2022/07/02 06:30:46;;;;;;;4.50;1.40;;;;;;;18.89;98.55;100695.06;5034534;28;20025;-63
2022/07/02 06:33:11;;;;;;;5.18;1.73;;;;;;;19.11;97.87;100695.63;5034780;28;20033;-63
2022/07/02 06:35:37;;;;;;;4.15;1.85;;;;;;;19.29;94.72;100691.91;5033936;28;20106;-64
2022/07/02 06:38:02;;;;;;;3.55;1.88;;;;;;;19.24;92.19;100691.25;5030352;28;20025;-64
2022/07/02 06:40:29;;;;;;;2.88;1.90;;;;;;;19.42;91.45;100695.63;5014483;28;20033;-64
2022/07/02 06:42:55;;;;;;;3.47;1.48;;;;;;;19.55;90.78;100692.09;5014632;28;20117;-64
2022/07/02 06:45:21;;;;;;;3.38;1.98;;;;;;;19.66;90.32;100699.59;5013486;28;20034;-64
2022/07/02 06:47:46;;;;;;;2.63;1.48;;;;;;;19.88;89.53;100686.56;5014274;28;20088;-64
2022/07/02 06:50:12;;;;;;;3.15;1.40;;;;;;;20.13;87.77;100692.19;5014032;28;20125;-64
2022/07/02 06:52:38;;;;;;;3.13;1.77;;;;;;;20.36;87.37;100680.03;5014263;28;20026;-64
2022/07/02 06:55:04;;;;;;;3.13;1.63;;;;;;;20.49;84.14;100687.25;5012666;28;20073;-64
2022/07/02 06:57:30;;;;;;;2.15;1.42;;;;;;;20.45;82.23;100690.25;5012319;28;20115;-64
2022/07/02 06:59:55;;;;;;;2.97;1.50;;;;;;;20.59;81.11;100693.81;5028301;28;20048;-64
2022/07/02 07:02:22;;;;;;;4.28;1.88;;;;;;;20.77;81.30;100689.09;5030508;28;20033;-64
2022/07/02 07:04:47;;;;;;;2.28;1.52;;;;;;;20.82;81.77;100685.13;5032017;28;20018;-64
2022/07/02 07:07:12;;;;;;;3.05;1.30;;;;;;;20.97;82.07;100687.81;5016615;28;20022;-64
2022/07/02 07:09:38;;;;;;;2.08;1.30;;;;;;;21.19;80.17;100682.75;5012060;28;20389;-64
2022/07/02 07:12:05;;;;;;;1.90;1.20;;;;;;;21.39;78.74;100685.91;5014310;28;20057;-64
2022/07/02 07:14:32;;;;;;;2.33;1.08;;;;;;;21.60;71.48;100691.72;5013823;28;20034;-64
2022/07/02 07:16:58;;;;;;;3.95;1.27;;;;;;;21.85;74.84;100689.13;5014253;28;20022;-64
2022/07/02 07:19:24;;;;;;;2.40;1.00;;;;;;;22.09;73.24;100680.19;5013550;28;20026;-64
2022/07/02 07:21:49;;;;;;;1.75;0.90;;;;;;;22.30;71.41;100677.84;5013334;28;20032;-64
2022/07/02 07:24:14;;;;;;;2.45;1.23;;;;;;;22.52;70.97;100686.16;5012926;28;20029;-63
2022/07/02 07:26:40;;;;;;;2.75;1.40;;;;;;;22.54;71.12;100686.97;5017809;28;20388;-63
2022/07/02 07:29:06;;;;;;;2.15;0.90;;;;;;;22.66;71.47;100672.53;5032369;28;20021;-63
2022/07/02 07:31:32;;;;;;;2.33;1.17;;;;;;;22.87;71.08;100676.41;5031681;28;20029;-63
2022/07/02 07:33:58;;;;;;;1.83;1.00;;;;;;;23.12;70.13;100667.34;5031654;28;20073;-63
2022/07/02 07:36:26;;;;;;;1.50;0.90;;;;;;;23.50;71.54;100664.50;5032236;28;20025;-63
2022/07/02 07:38:52;;;;;;;1.63;0.90;;;;;;;23.79;67.70;100647.72;5031175;28;20109;-63
2022/07/02 07:41:19;;;;;;;3.85;0.82;;;;;;;24.04;65.94;100652.16;5032204;28;20113;-63
2022/07/02 07:43:44;;;;;;;4.70;1.23;;;;;;;24.34;63.72;100657.91;5033204;28;20029;-63
2022/07/02 07:46:10;;;;;;;3.00;1.05;;;;;;;24.50;63.50;100659.28;5033323;28;20018;-63
2022/07/02 07:48:36;;;;;;;1.40;0.80;;;;;;;24.87;63.22;100653.63;5032649;28;20504;-63
2022/07/02 07:51:02;;;;;;;1.60;0.80;;;;;;;25.26;61.03;100651.22;5032622;28;20033;-63
2022/07/02 07:53:27;;;;;;;3.15;1.50;;;;;;;25.56;59.12;100645.09;5032821;28;20412;-63
2022/07/02 07:55:53;;;;;;;2.30;0.80;;;;;;;25.92;59.54;100651.00;5032709;28;20144;-63
2022/07/02 07:58:20;;;;;;;1.92;0.80;;;;;;;26.23;57.37;100641.06;5032076;28;20028;-63
2022/07/02 08:00:46;;;;;;;3.72;1.05;;;;;;;26.51;58.81;100648.53;5031667;28;20068;-63
2022/07/02 08:03:14;;;;;;;2.40;1.08;;;;;;;26.79;57.65;100633.31;5031358;28;20057;-63
2022/07/02 08:05:40;;;;;;;1.65;0.95;;;;;;;26.75;55.70;100642.81;5031402;28;20441;-63
2022/07/02 08:08:07;;;;;;;4.80;0.57;;;;;;;26.96;55.06;100638.16;5030109;28;20033;-63
2022/07/02 08:10:33;;;;;;;1.08;0.77;;;;;;;27.14;55.34;100640.06;5027867;28;20072;-63
2022/07/02 08:12:58;;;;;;;1.35;0.90;;;;;;;27.27;53.98;100634.34;5030177;28;20026;-63
2022/07/02 08:15:24;;;;;;;1.75;0.85;;;;;;;27.56;54.28;100623.50;5030147;28;20736;-63
2022/07/02 08:17:50;;;;;;;1.33;0.85;;;;;;;27.43;54.57;100623.75;5030866;28;20030;-63
2022/07/02 08:20:16;;;;;;;2.22;1.00;;;;;;;27.55;54.28;100613.53;5030378;28;20024;-64
2022/07/02 08:22:43;;;;;;;1.70;0.90;;;;;;;27.84;54.45;100617.16;5030503;28;20029;-64
2022/07/02 08:25:09;;;;;;;1.88;1.02;;;;;;;28.19;52.40;100618.28;5030363;28;20083;-64
2022/07/02 08:27:34;;;;;;;1.40;0.80;;;;;;;28.34;55.42;100616.81;5018124;28;20026;-64
2022/07/02 08:30:00;;;;;;;1.38;0.52;;;;;;;28.72;53.02;100610.34;5027060;28;20029;-65
2022/07/02 08:32:26;;;;;;;2.50;1.08;;;;;;;29.00;50.90;100603.88;5029871;28;20085;-65
2022/07/02 08:34:54;;;;;;;0.90;0.40;;;;;;;29.01;50.99;100607.47;5029420;28;20476;-64
2022/07/02 08:37:22;;;;;;;0.80;0.50;;;;;;;29.04;50.96;100605.31;5029913;28;20078;-64
2022/07/02 08:39:48;;;;;;;1.75;0.60;;;;;;;28.77;48.59;100597.06;5030058;28;20096;-64
2022/07/02 08:42:26;;;;;;;3.42;0.75;;;;;;;29.00;48.71;100608.47;5029946;28;20108;-64
2022/07/02 08:44:56;;;;;;;1.48;0.63;;;;;;;29.30;48.06;100594.47;5029869;28;20191;-64
2022/07/02 08:47:23;;;;;;;0.60;0.40;;;;;;;29.51;49.04;100587.69;5017966;28;20030;-64
2022/07/02 08:49:51;;;;;;;1.15;0.60;;;;;;;29.78;46.83;100595.00;5009990;28;20428;-64
2022/07/02 08:52:18;;;;;;;1.30;0.70;;;;;;;29.84;47.51;100588.88;5009525;28;20030;-64
2022/07/02 08:54:45;;;;;;;1.50;0.70;;;;;;;29.86;46.72;100592.31;5009543;28;20050;-64
2022/07/02 08:57:12;;;;;;;1.25;0.70;;;;;;;29.68;48.02;100577.75;5012526;28;20030;-64
2022/07/02 08:59:38;;;;;;;1.95;0.70;;;;;;;29.72;46.16;100583.78;5023927;28;20030;-64
2022/07/02 09:02:05;;;;;;;1.15;0.70;;;;;;;29.87;49.50;100577.56;5028709;28;20037;-64
2022/07/02 09:04:33;;;;;;;3.13;1.13;;;;;;;30.38;48.65;100588.59;5028618;28;20067;-64
2022/07/02 09:07:03;;;;;;;1.65;0.80;;;;;;;30.35;44.35;100583.44;5029757;28;20040;-64
2022/07/02 09:09:30;;;;;;;1.58;1.15;;;;;;;30.35;45.32;100580.69;5028526;28;20033;-64
2022/07/02 09:11:57;;;;;;;1.60;0.90;;;;;;;30.41;46.16;100571.78;5027645;28;20441;-64
2022/07/02 09:14:23;;;;;;;1.85;0.80;;;;;;;30.41;44.34;100565.47;5028301;28;20029;-64
2022/07/02 09:16:49;;;;;;;0.57;0.50;;;;;;;30.62;43.32;100569.53;5029157;28;20033;-64
2022/07/02 09:19:16;;;;;;;2.05;0.60;;;;;;;30.60;44.99;100566.09;5029751;28;20056;-64
2022/07/02 09:21:50;;;;;;;4.28;0.43;;;;;;;30.81;44.09;100568.41;5029486;28;20032;-64
2022/07/02 09:24:34;;;;;;;1.73;0.70;;;;;;;30.68;43.75;100566.13;5029870;28;20025;-64
2022/07/02 09:27:03;;;;;;;0.88;0.60;;;;;;;30.64;44.51;100567.44;5034030;28;20021;-64
2022/07/02 09:29:39;;;;;;;0.73;0.60;;;;;;;30.80;43.77;100561.22;5034827;28;20533;-64
2022/07/02 09:32:04;;;;;;;2.38;1.08;;;;;;;31.18;44.22;100555.16;5034672;28;20500;-64
2022/07/02 09:34:30;;;;;;;1.30;0.57;;;;;;;31.27;42.06;100556.03;5035025;28;20122;-64
2022/07/02 09:36:55;;;;;;;0.93;0.50;;;;;;;31.36;41.50;100549.53;5033833;28;20371;-64
2022/07/02 09:39:31;;;;;;;1.33;0.60;;;;;;;31.15;42.39;100555.50;5033094;28;20037;-64
2022/07/02 09:41:57;;;;;;;1.75;0.70;;;;;;;31.43;40.69;100565.22;5032780;28;20388;-64
2022/07/02 09:44:23;;;;;;;0.40;0.40;;;;;;;31.50;40.97;100560.72;5032806;28;20037;-64
2022/07/02 09:46:49;;;;;;;0.95;0.45;;;;;;;31.69;40.57;100557.66;5032837;28;20036;-65
2022/07/02 09:49:15;;;;;;;1.98;0.50;;;;;;;31.98;39.77;100562.66;5032973;28;20351;-65
2022/07/02 09:51:52;;;;;;;2.45;0.40;;;;;;;31.84;39.47;100557.81;5033591;28;20037;-65
2022/07/02 09:54:20;;;;;;;1.52;0.63;;;;;;;32.13;38.95;100553.53;5033098;28;20061;-65
2022/07/02 09:56:56;;;;;;;0.73;0.30;;;;;;;32.33;38.30;100555.88;5034043;28;20029;-65
2022/07/02 09:59:22;;;;;;;1.48;0.60;;;;;;;32.28;36.03;100555.53;5034544;28;20033;-65
2022/07/02 10:01:48;;;;;;;1.52;0.47;;;;;;;31.99;37.45;100562.47;5033606;28;20057;-65
2022/07/02 10:04:14;;;;;;;0.70;0.35;;;;;;;32.22;38.13;100557.13;5033932;28;20111;-65
2022/07/02 10:06:42;;;;;;;3.90;1.63;;;;;;;32.45;38.33;100560.88;5033698;28;20044;-65
2022/07/02 10:09:09;;;;;;;0.70;0.43;;;;;;;32.14;35.68;100551.63;5034250;28;20100;-65
2022/07/02 10:11:36;;;;;;;0.80;0.40;;;;;;;32.21;38.12;100549.03;5033777;28;20059;-65
2022/07/02 10:14:03;;;;;;;4.53;2.22;;;;;;;32.74;37.73;100547.34;5034167;28;20029;-66
2022/07/02 10:16:30;;;;;;;2.45;1.23;;;;;;;32.80;39.36;100546.63;5032876;28;20029;-66
2022/07/02 10:18:58;;;;;;;1.13;0.43;;;;;;;32.99;35.90;100545.34;5031936;28;20017;-66
2022/07/02 10:21:24;;;;;;;2.10;0.40;;;;;;;32.70;34.88;100534.09;5028649;28;20040;-65
2022/07/02 10:23:51;;;;;;;1.65;0.30;;;;;;;32.70;35.20;100534.94;5032848;28;20372;-65
2022/07/02 10:26:17;;;;;;;1.02;0.40;;;;;;;32.28;36.39;100526.13;5031057;28;20113;-65
2022/07/02 10:28:43;;;;;;;0.90;0.40;;;;;;;32.30;36.18;100526.81;5018842;28;20053;-65
2022/07/02 10:31:21;;;;;;;1.00;0.45;;;;;;;32.60;35.62;100537.09;5033561;28;20034;-65
2022/07/02 10:33:53;;;;;;;0.60;0.35;;;;;;;32.52;36.20;100519.72;5033555;28;20205;-65
2022/07/02 10:36:20;;;;;;;2.17;0.40;;;;;;;32.66;36.04;100527.22;5032478;28;20037;-65
2022/07/02 10:38:56;;;;;;;0.90;0.30;;;;;;;32.87;34.33;100528.31;5032963;28;20029;-65
2022/07/02 10:41:26;;;;;;;3.78;2.03;;;;;;;33.22;34.76;100525.06;5033739;28;20111;-65
2022/07/02 10:43:54;;;;;;;1.20;0.35;;;;;;;33.49;33.84;100523.69;5033158;28;20041;-65
2022/07/02 10:46:22;;;;;;;1.33;0.47;;;;;;;33.48;30.73;100518.34;5033755;28;20021;-65
2022/07/02 10:49:00;;;;;;;1.95;0.30;;;;;;;33.51;34.60;100524.34;5033415;28;20362;-64
2022/07/02 10:51:26;;;;;;;0.28;0.20;;;;;;;33.71;34.34;100508.16;5025145;28;20585;-64
2022/07/02 10:54:06;;;;;;;0.82;0.40;;;;;;;33.73;33.18;100511.56;5012891;28;20486;-64
2022/07/02 10:56:54;;;;;;;0.63;0.20;;;;;;;34.02;32.97;100511.69;4993852;28;20121;-64
2022/07/02 10:59:33;;;;;;;0.95;0.30;;;;;;;34.03;32.04;100513.38;5004510;28;20061;-64
2022/07/02 11:02:07;;;;;;;0.20;0.20;;;;;;;34.29;30.90;100513.78;5013529;28;20048;-64
2022/07/02 11:04:34;;;;;;;0.25;0.25;;;;;;;34.08;30.57;100510.91;5013512;28;20066;-64
2022/07/02 11:07:06;;;;;;;1.40;0.30;;;;;;;33.87;32.44;100511.59;5013213;28;20029;-64
2022/07/02 11:09:32;;;;;;;;;;;;;;;34.28;32.73;100507.38;5012519;28;20032;-64
2022/07/02 11:12:00;;;;;;;0.98;0.40;;;;;;;34.64;32.61;100502.00;5011405;28;19909;-64
2022/07/02 11:14:26;;;;;;;0.95;0.20;;;;;;;34.89;29.72;100497.00;5011060;28;20030;-64
2022/07/02 11:16:53;;;;;;;0.55;0.30;;;;;;;34.67;28.83;100493.31;5011362;28;20037;-64
2022/07/02 11:19:24;;;;;;;0.20;0.20;;;;;;;34.55;30.84;100490.19;5002783;28;20032;-64
2022/07/02 11:21:51;;;;;;;0.38;0.20;;;;;;;34.54;31.85;100491.25;4993116;28;20033;-64
2022/07/02 11:24:19;;;;;;;0.50;0.40;;;;;;;34.65;30.62;100497.34;4993289;28;20105;-64